Terminal Aerodrome Forecast
Issued by NWS

Home | Current Version | Previous Version | Text Only | Print | Product List | Glossary On
Versions: 1 2 3 4 5 6 7 8 9 10 11 12 13 14 15 16 17 18 19 20 21 22 23 24 25 26
000
FTPA31 PHFO 282300
TAFITO
TAF
PHTO 282320Z 2900/2924 01012KT P6SM FEW030 SCT045
     FM290300 34010KT P6SM SCT030 SCT045
     FM291000 24008KT P6SM FEW030 SCT045
     FM292100 09010KT P6SM SCT030 SCT045=

USA.gov is the U.S. government's official web portal to all federal, state and local government web resources and services.